sensor_id;sensor_type;location;lat;lon;timestamp;temperature;humidity
7496;DHT22;3789;47.064;15.482;2023-07-24T00:01:59;20.40;99.90
7496;DHT22;3789;47.064;15.482;2023-07-24T00:04:37;20.40;99.90
7496;DHT22;3789;47.064;15.482;2023-07-24T00:07:09;20.30;99.90
7496;DHT22;3789;47.064;15.482;2023-07-24T00:09:40;20.50;99.90
7496;DHT22;3789;47.064;15.482;2023-07-24T00:12:07;20.50;99.90
7496;DHT22;3789;47.064;15.482;2023-07-24T00:14:39;20.50;99.90
7496;DHT22;3789;47.064;15.482;2023-07-24T00:17:08;20.30;99.90
7496;DHT22;3789;47.064;15.482;2023-07-24T00:19:38;20.20;99.90
7496;DHT22;3789;47.064;15.482;2023-07-24T00:22:07;20.10;99.90
7496;DHT22;3789;47.064;15.482;2023-07-24T00:24:37;20.30;99.90
7496;DHT22;3789;47.064;15.482;2023-07-24T00:27:05;20.20;99.90
7496;DHT22;3789;47.064;15.482;2023-07-24T00:29:35;20.00;99.90
7496;DHT22;3789;47.064;15.482;2023-07-24T00:32:12;19.90;99.90
7496;DHT22;3789;47.064;15.482;2023-07-24T00:34:45;19.90;99.90
7496;DHT22;3789;47.064;15.482;2023-07-24T00:37:17;19.80;99.90
7496;DHT22;3789;47.064;15.482;2023-07-24T00:39:47;19.80;99.90
7496;DHT22;3789;47.064;15.482;2023-07-24T00:42:17;19.80;99.90
7496;DHT22;3789;47.064;15.482;2023-07-24T00:44:45;19.80;99.90
7496;DHT22;3789;47.064;15.482;2023-07-24T00:47:18;19.80;99.90
7496;DHT22;3789;47.064;15.482;2023-07-24T00:49:49;19.70;99.90
7496;DHT22;3789;47.064;15.482;2023-07-24T00:52:20;19.70;99.90
7496;DHT22;3789;47.064;15.482;2023-07-24T00:54:55;19.60;99.90
7496;DHT22;3789;47.064;15.482;2023-07-24T00:57:26;19.60;99.90
7496;DHT22;3789;47.064;15.482;2023-07-24T00:59:55;19.60;99.90
7496;DHT22;3789;47.064;15.482;2023-07-24T01:02:34;19.50;99.90
7496;DHT22;3789;47.064;15.482;2023-07-24T01:05:15;19.40;99.90
7496;DHT22;3789;47.064;15.482;2023-07-24T01:07:48;19.40;99.90
7496;DHT22;3789;47.064;15.482;2023-07-24T01:10:16;19.30;99.90
7496;DHT22;3789;47.064;15.482;2023-07-24T01:13:24;19.30;99.90
7496;DHT22;3789;47.064;15.482;2023-07-24T01:16:11;19.20;99.90
7496;DHT22;3789;47.064;15.482;2023-07-24T01:18:50;19.20;99.90
7496;DHT22;3789;47.064;15.482;2023-07-24T01:21:29;19.20;99.90
7496;DHT22;3789;47.064;15.482;2023-07-24T01:28:07;19.20;99.90
7496;DHT22;3789;47.064;15.482;2023-07-24T01:30:45;19.20;99.90
7496;DHT22;3789;47.064;15.482;2023-07-24T01:33:21;19.20;99.90
7496;DHT22;3789;47.064;15.482;2023-07-24T01:35:55;19.20;99.90
7496;DHT22;3789;47.064;15.482;2023-07-24T01:38:26;19.10;99.90
7496;DHT22;3789;47.064;15.482;2023-07-24T01:41:00;19.10;99.90
7496;DHT22;3789;47.064;15.482;2023-07-24T01:43:31;19.00;99.90
7496;DHT22;3789;47.064;15.482;2023-07-24T01:46:03;19.10;99.90
7496;DHT22;3789;47.064;15.482;2023-07-24T01:48:34;19.10;99.90
7496;DHT22;3789;47.064;15.482;2023-07-24T01:51:04;19.00;99.90
7496;DHT22;3789;47.064;15.482;2023-07-24T01:53:41;19.00;99.90
7496;DHT22;3789;47.064;15.482;2023-07-24T01:56:13;19.20;99.90
7496;DHT22;3789;47.064;15.482;2023-07-24T01:58:43;19.10;99.90
7496;DHT22;3789;47.064;15.482;2023-07-24T02:01:21;19.10;99.90
7496;DHT22;3789;47.064;15.482;2023-07-24T02:03:51;19.10;99.90
7496;DHT22;3789;47.064;15.482;2023-07-24T02:06:27;19.00;99.90
7496;DHT22;3789;47.064;15.482;2023-07-24T02:09:08;19.00;99.90
7496;DHT22;3789;47.064;15.482;2023-07-24T02:11:40;18.90;99.90
7496;DHT22;3789;47.064;15.482;2023-07-24T02:14:11;19.00;99.90
7496;DHT22;3789;47.064;15.482;2023-07-24T02:16:41;19.10;99.90
7496;DHT22;3789;47.064;15.482;2023-07-24T02:19:10;19.00;99.90
7496;DHT22;3789;47.064;15.482;2023-07-24T02:21:40;19.00;99.90
7496;DHT22;3789;47.064;15.482;2023-07-24T02:24:12;18.90;99.90
7496;DHT22;3789;47.064;15.482;2023-07-24T02:26:47;18.80;99.90
7496;DHT22;3789;47.064;15.482;2023-07-24T02:29:20;18.90;99.90
7496;DHT22;3789;47.064;15.482;2023-07-24T02:31:50;18.90;99.90
7496;DHT22;3789;47.064;15.482;2023-07-24T02:34:19;18.80;99.90
7496;DHT22;3789;47.064;15.482;2023-07-24T02:36:56;18.80;99.90
7496;DHT22;3789;47.064;15.482;2023-07-24T02:39:26;18.70;99.90
7496;DHT22;3789;47.064;15.482;2023-07-24T02:41:57;18.70;99.90
7496;DHT22;3789;47.064;15.482;2023-07-24T02:44:25;18.80;99.90
7496;DHT22;3789;47.064;15.482;2023-07-24T02:46:57;18.70;99.90
7496;DHT22;3789;47.064;15.482;2023-07-24T02:49:25;18.60;99.90
7496;DHT22;3789;47.064;15.482;2023-07-24T02:51:53;18.60;99.90
7496;DHT22;3789;47.064;15.482;2023-07-24T02:54:25;18.60;99.90
7496;DHT22;3789;47.064;15.482;2023-07-24T02:56:54;18.50;99.90
7496;DHT22;3789;47.064;15.482;2023-07-24T02:59:23;18.40;99.90
7496;DHT22;3789;47.064;15.482;2023-07-24T03:01:52;18.40;99.90
7496;DHT22;3789;47.064;15.482;2023-07-24T03:04:32;18.40;99.90
7496;DHT22;3789;47.064;15.482;2023-07-24T03:07:01;18.40;99.90
7496;DHT22;3789;47.064;15.482;2023-07-24T03:09:38;18.30;99.90
7496;DHT22;3789;47.064;15.482;2023-07-24T03:12:15;18.30;99.90
7496;DHT22;3789;47.064;15.482;2023-07-24T03:14:44;18.30;99.90
7496;DHT22;3789;47.064;15.482;2023-07-24T03:17:13;18.20;99.90
7496;DHT22;3789;47.064;15.482;2023-07-24T03:19:42;18.10;99.90
7496;DHT22;3789;47.064;15.482;2023-07-24T03:22:12;18.10;99.90
7496;DHT22;3789;47.064;15.482;2023-07-24T03:24:43;18.00;99.90
7496;DHT22;3789;47.064;15.482;2023-07-24T03:27:14;18.00;99.90
7496;DHT22;3789;47.064;15.482;2023-07-24T03:29:45;18.10;99.90
7496;DHT22;3789;47.064;15.482;2023-07-24T03:32:14;18.00;99.90
7496;DHT22;3789;47.064;15.482;2023-07-24T03:34:44;18.00;99.90
7496;DHT22;3789;47.064;15.482;2023-07-24T03:37:12;18.00;99.90
7496;DHT22;3789;47.064;15.482;2023-07-24T03:39:43;18.00;99.90
7496;DHT22;3789;47.064;15.482;2023-07-24T03:42:29;18.00;99.90
7496;DHT22;3789;47.064;15.482;2023-07-24T03:45:07;18.00;99.90
7496;DHT22;3789;47.064;15.482;2023-07-24T03:47:44;18.00;99.90
7496;DHT22;3789;47.064;15.482;2023-07-24T03:50:14;18.00;99.90
7496;DHT22;3789;47.064;15.482;2023-07-24T03:52:43;18.00;99.90
7496;DHT22;3789;47.064;15.482;2023-07-24T03:55:12;17.90;99.90
7496;DHT22;3789;47.064;15.482;2023-07-24T03:57:42;17.90;99.90
7496;DHT22;3789;47.064;15.482;2023-07-24T04:00:12;18.00;99.90
7496;DHT22;3789;47.064;15.482;2023-07-24T04:02:44;18.10;99.90
7496;DHT22;3789;47.064;15.482;2023-07-24T04:05:16;18.20;99.90
7496;DHT22;3789;47.064;15.482;2023-07-24T04:07:46;18.50;99.90
7496;DHT22;3789;47.064;15.482;2023-07-24T04:10:17;18.60;99.90
7496;DHT22;3789;47.064;15.482;2023-07-24T04:12:53;18.70;99.90
7496;DHT22;3789;47.064;15.482;2023-07-24T04:15:24;18.70;99.90
7496;DHT22;3789;47.064;15.482;2023-07-24T04:17:54;18.90;99.90
7496;DHT22;3789;47.064;15.482;2023-07-24T04:20:24;19.10;99.90
7496;DHT22;3789;47.064;15.482;2023-07-24T04:22:52;19.30;99.90
7496;DHT22;3789;47.064;15.482;2023-07-24T04:25:21;19.40;99.90
7496;DHT22;3789;47.064;15.482;2023-07-24T04:27:51;19.50;99.90
7496;DHT22;3789;47.064;15.482;2023-07-24T04:30:20;19.60;99.90
7496;DHT22;3789;47.064;15.482;2023-07-24T04:32:49;19.70;99.90
7496;DHT22;3789;47.064;15.482;2023-07-24T04:35:21;19.80;99.90
7496;DHT22;3789;47.064;15.482;2023-07-24T04:37:50;19.70;99.90
7496;DHT22;3789;47.064;15.482;2023-07-24T04:40:19;19.80;99.90
7496;DHT22;3789;47.064;15.482;2023-07-24T04:42:47;19.90;99.90
7496;DHT22;3789;47.064;15.482;2023-07-24T04:45:18;19.90;99.90
7496;DHT22;3789;47.064;15.482;2023-07-24T04:47:51;20.00;99.90
7496;DHT22;3789;47.064;15.482;2023-07-24T04:50:22;20.10;99.90
7496;DHT22;3789;47.064;15.482;2023-07-24T04:52:51;20.20;99.90
7496;DHT22;3789;47.064;15.482;2023-07-24T04:55:21;20.30;99.90
7496;DHT22;3789;47.064;15.482;2023-07-24T04:57:52;20.50;99.90
7496;DHT22;3789;47.064;15.482;2023-07-24T05:00:22;20.50;99.90
7496;DHT22;3789;47.064;15.482;2023-07-24T05:02:52;20.60;99.90
7496;DHT22;3789;47.064;15.482;2023-07-24T05:05:23;20.60;99.90
7496;DHT22;3789;47.064;15.482;2023-07-24T05:07:52;20.60;99.90
7496;DHT22;3789;47.064;15.482;2023-07-24T05:10:26;20.70;99.90
7496;DHT22;3789;47.064;15.482;2023-07-24T05:12:54;20.80;99.90
7496;DHT22;3789;47.064;15.482;2023-07-24T05:15:24;20.80;99.90
7496;DHT22;3789;47.064;15.482;2023-07-24T05:17:53;20.90;99.90
7496;DHT22;3789;47.064;15.482;2023-07-24T05:20:23;21.00;99.90
7496;DHT22;3789;47.064;15.482;2023-07-24T05:22:55;21.00;99.90
7496;DHT22;3789;47.064;15.482;2023-07-24T05:25:24;20.90;99.90
7496;DHT22;3789;47.064;15.482;2023-07-24T05:27:55;21.00;99.90
7496;DHT22;3789;47.064;15.482;2023-07-24T05:30:32;21.10;99.90
7496;DHT22;3789;47.064;15.482;2023-07-24T05:33:01;21.20;99.90
7496;DHT22;3789;47.064;15.482;2023-07-24T05:35:37;21.30;99.90
7496;DHT22;3789;47.064;15.482;2023-07-24T05:38:08;21.20;99.90
7496;DHT22;3789;47.064;15.482;2023-07-24T05:40:40;21.10;99.90
7496;DHT22;3789;47.064;15.482;2023-07-24T05:43:10;21.00;99.90
7496;DHT22;3789;47.064;15.482;2023-07-24T05:45:51;21.30;99.90
7496;DHT22;3789;47.064;15.482;2023-07-24T05:48:25;21.50;99.90
7496;DHT22;3789;47.064;15.482;2023-07-24T05:50:52;21.40;99.90
7496;DHT22;3789;47.064;15.482;2023-07-24T05:53:21;21.60;99.90
7496;DHT22;3789;47.064;15.482;2023-07-24T05:56:01;21.70;99.90
7496;DHT22;3789;47.064;15.482;2023-07-24T05:58:34;21.90;99.90
7496;DHT22;3789;47.064;15.482;2023-07-24T06:01:10;22.00;99.90
7496;DHT22;3789;47.064;15.482;2023-07-24T06:03:41;22.10;99.90
7496;DHT22;3789;47.064;15.482;2023-07-24T06:06:34;22.40;99.90
7496;DHT22;3789;47.064;15.482;2023-07-24T06:09:06;22.60;99.90
7496;DHT22;3789;47.064;15.482;2023-07-24T06:11:35;22.90;99.90
7496;DHT22;3789;47.064;15.482;2023-07-24T06:14:07;23.10;99.90
7496;DHT22;3789;47.064;15.482;2023-07-24T06:16:38;23.20;99.90
7496;DHT22;3789;47.064;15.482;2023-07-24T06:19:07;23.50;99.90
7496;DHT22;3789;47.064;15.482;2023-07-24T06:21:46;23.70;99.90
7496;DHT22;3789;47.064;15.482;2023-07-24T06:24:13;23.80;99.90
7496;DHT22;3789;47.064;15.482;2023-07-24T06:26:45;23.90;99.90
7496;DHT22;3789;47.064;15.482;2023-07-24T06:29:23;23.90;99.90
7496;DHT22;3789;47.064;15.482;2023-07-24T06:32:01;24.10;99.90
7496;DHT22;3789;47.064;15.482;2023-07-24T06:34:36;24.30;99.90
7496;DHT22;3789;47.064;15.482;2023-07-24T06:37:12;24.60;99.90
7496;DHT22;3789;47.064;15.482;2023-07-24T06:39:49;24.70;99.90
7496;DHT22;3789;47.064;15.482;2023-07-24T06:42:19;24.80;99.90
7496;DHT22;3789;47.064;15.482;2023-07-24T06:44:50;24.90;99.90
7496;DHT22;3789;47.064;15.482;2023-07-24T06:47:19;25.20;99.90
7496;DHT22;3789;47.064;15.482;2023-07-24T06:49:50;25.20;99.90
7496;DHT22;3789;47.064;15.482;2023-07-24T06:52:20;25.30;99.90
7496;DHT22;3789;47.064;15.482;2023-07-24T06:54:51;25.30;99.90
7496;DHT22;3789;47.064;15.482;2023-07-24T06:57:22;25.30;99.90
7496;DHT22;3789;47.064;15.482;2023-07-24T06:59:58;25.10;99.90
7496;DHT22;3789;47.064;15.482;2023-07-24T07:02:26;25.10;99.90
7496;DHT22;3789;47.064;15.482;2023-07-24T07:04:56;25.30;99.90
7496;DHT22;3789;47.064;15.482;2023-07-24T07:07:28;25.70;99.90
7496;DHT22;3789;47.064;15.482;2023-07-24T07:09:58;25.90;99.90
7496;DHT22;3789;47.064;15.482;2023-07-24T07:12:29;25.90;99.90
7496;DHT22;3789;47.064;15.482;2023-07-24T07:15:12;25.90;99.90
7496;DHT22;3789;47.064;15.482;2023-07-24T07:17:41;26.00;99.90
7496;DHT22;3789;47.064;15.482;2023-07-24T07:20:17;26.20;99.90
7496;DHT22;3789;47.064;15.482;2023-07-24T07:22:47;26.40;99.90
7496;DHT22;3789;47.064;15.482;2023-07-24T07:25:18;26.30;99.90
7496;DHT22;3789;47.064;15.482;2023-07-24T07:27:46;26.50;99.90
7496;DHT22;3789;47.064;15.482;2023-07-24T07:30:15;26.60;99.90
7496;DHT22;3789;47.064;15.482;2023-07-24T07:32:50;26.60;99.90
7496;DHT22;3789;47.064;15.482;2023-07-24T07:35:19;26.80;99.90
7496;DHT22;3789;47.064;15.482;2023-07-24T07:37:47;27.10;99.90
7496;DHT22;3789;47.064;15.482;2023-07-24T07:40:16;27.50;99.90
7496;DHT22;3789;47.064;15.482;2023-07-24T07:42:47;27.40;99.90
7496;DHT22;3789;47.064;15.482;2023-07-24T07:45:23;27.40;99.90
7496;DHT22;3789;47.064;15.482;2023-07-24T07:47:53;27.40;99.90
7496;DHT22;3789;47.064;15.482;2023-07-24T07:50:22;27.50;99.90
7496;DHT22;3789;47.064;15.482;2023-07-24T07:52:52;27.50;99.90
7496;DHT22;3789;47.064;15.482;2023-07-24T07:55:22;27.40;99.90
7496;DHT22;3789;47.064;15.482;2023-07-24T07:57:50;27.30;99.90
7496;DHT22;3789;47.064;15.482;2023-07-24T08:00:22;27.50;99.90
7496;DHT22;3789;47.064;15.482;2023-07-24T08:02:50;27.50;99.90
7496;DHT22;3789;47.064;15.482;2023-07-24T08:05:22;27.20;99.90
7496;DHT22;3789;47.064;15.482;2023-07-24T08:07:52;27.20;99.90
7496;DHT22;3789;47.064;15.482;2023-07-24T08:10:23;27.20;99.90
7496;DHT22;3789;47.064;15.482;2023-07-24T08:12:52;27.10;99.90
7496;DHT22;3789;47.064;15.482;2023-07-24T08:15:23;27.20;99.90
7496;DHT22;3789;47.064;15.482;2023-07-24T08:17:52;27.30;99.90
7496;DHT22;3789;47.064;15.482;2023-07-24T08:20:25;27.10;99.90
7496;DHT22;3789;47.064;15.482;2023-07-24T08:22:56;27.10;99.90
7496;DHT22;3789;47.064;15.482;2023-07-24T08:25:24;27.40;99.90
7496;DHT22;3789;47.064;15.482;2023-07-24T08:27:56;27.60;99.90
7496;DHT22;3789;47.064;15.482;2023-07-24T08:30:36;27.60;99.90
7496;DHT22;3789;47.064;15.482;2023-07-24T08:33:13;27.70;99.90
7496;DHT22;3789;47.064;15.482;2023-07-24T08:35:44;27.60;99.90
7496;DHT22;3789;47.064;15.482;2023-07-24T08:38:16;27.80;99.90
7496;DHT22;3789;47.064;15.482;2023-07-24T08:40:45;27.80;99.90
7496;DHT22;3789;47.064;15.482;2023-07-24T08:43:21;28.00;99.90
7496;DHT22;3789;47.064;15.482;2023-07-24T08:45:51;28.20;99.90
7496;DHT22;3789;47.064;15.482;2023-07-24T08:48:20;28.30;99.90
7496;DHT22;3789;47.064;15.482;2023-07-24T08:50:50;28.40;99.90
7496;DHT22;3789;47.064;15.482;2023-07-24T08:53:26;28.40;99.90
7496;DHT22;3789;47.064;15.482;2023-07-24T08:56:11;28.40;99.90
7496;DHT22;3789;47.064;15.482;2023-07-24T08:58:44;28.00;99.90
7496;DHT22;3789;47.064;15.482;2023-07-24T09:01:13;28.00;99.90
7496;DHT22;3789;47.064;15.482;2023-07-24T09:03:52;28.20;99.90
7496;DHT22;3789;47.064;15.482;2023-07-24T09:06:27;28.30;99.90
7496;DHT22;3789;47.064;15.482;2023-07-24T09:08:57;28.40;99.90
7496;DHT22;3789;47.064;15.482;2023-07-24T09:11:26;28.60;99.90
7496;DHT22;3789;47.064;15.482;2023-07-24T09:13:54;28.60;99.90
7496;DHT22;3789;47.064;15.482;2023-07-24T09:16:28;28.50;99.90
7496;DHT22;3789;47.064;15.482;2023-07-24T09:19:04;28.40;99.90
7496;DHT22;3789;47.064;15.482;2023-07-24T09:21:36;28.50;99.90
7496;DHT22;3789;47.064;15.482;2023-07-24T09:24:14;28.60;99.90
7496;DHT22;3789;47.064;15.482;2023-07-24T09:26:50;28.80;99.90
7496;DHT22;3789;47.064;15.482;2023-07-24T09:29:31;28.50;99.90
7496;DHT22;3789;47.064;15.482;2023-07-24T09:32:03;28.10;99.90
7496;DHT22;3789;47.064;15.482;2023-07-24T09:34:45;28.30;99.90
7496;DHT22;3789;47.064;15.482;2023-07-24T09:37:35;28.50;99.90
7496;DHT22;3789;47.064;15.482;2023-07-24T09:40:15;28.80;99.90
7496;DHT22;3789;47.064;15.482;2023-07-24T09:42:45;29.10;99.90
7496;DHT22;3789;47.064;15.482;2023-07-24T09:45:35;28.80;99.90
7496;DHT22;3789;47.064;15.482;2023-07-24T09:48:15;28.70;99.90
7496;DHT22;3789;47.064;15.482;2023-07-24T09:51:05;29.00;99.90
7496;DHT22;3789;47.064;15.482;2023-07-24T09:54:22;29.40;99.90
7496;DHT22;3789;47.064;15.482;2023-07-24T09:56:52;29.20;99.90
7496;DHT22;3789;47.064;15.482;2023-07-24T09:59:39;29.00;99.90
7496;DHT22;3789;47.064;15.482;2023-07-24T10:02:23;29.00;99.90
7496;DHT22;3789;47.064;15.482;2023-07-24T10:04:59;28.30;99.90
7496;DHT22;3789;47.064;15.482;2023-07-24T10:07:31;28.10;99.90
7496;DHT22;3789;47.064;15.482;2023-07-24T10:09:59;28.40;99.90
7496;DHT22;3789;47.064;15.482;2023-07-24T10:12:33;29.00;99.90
7496;DHT22;3789;47.064;15.482;2023-07-24T10:15:07;29.50;99.90
7496;DHT22;3789;47.064;15.482;2023-07-24T10:17:40;29.60;99.90
7496;DHT22;3789;47.064;15.482;2023-07-24T10:20:15;29.70;99.90
7496;DHT22;3789;47.064;15.482;2023-07-24T10:22:47;29.60;99.90
7496;DHT22;3789;47.064;15.482;2023-07-24T10:25:18;29.60;99.90
7496;DHT22;3789;47.064;15.482;2023-07-24T10:28:11;29.60;99.90
7496;DHT22;3789;47.064;15.482;2023-07-24T10:30:56;29.40;99.90
7496;DHT22;3789;47.064;15.482;2023-07-24T10:33:29;29.40;99.90
7496;DHT22;3789;47.064;15.482;2023-07-24T10:36:12;29.50;99.90
7496;DHT22;3789;47.064;15.482;2023-07-24T10:38:56;29.60;99.90
7496;DHT22;3789;47.064;15.482;2023-07-24T10:41:35;29.80;99.90
7496;DHT22;3789;47.064;15.482;2023-07-24T10:44:05;29.60;99.90
7496;DHT22;3789;47.064;15.482;2023-07-24T10:47:03;29.40;99.90
7496;DHT22;3789;47.064;15.482;2023-07-24T10:49:35;29.10;99.90
7496;DHT22;3789;47.064;15.482;2023-07-24T10:52:04;28.80;99.90
7496;DHT22;3789;47.064;15.482;2023-07-24T10:54:31;28.60;99.90
7496;DHT22;3789;47.064;15.482;2023-07-24T10:57:05;28.70;99.90
7496;DHT22;3789;47.064;15.482;2023-07-24T10:59:41;29.00;99.90
7496;DHT22;3789;47.064;15.482;2023-07-24T11:02:21;29.20;99.90
7496;DHT22;3789;47.064;15.482;2023-07-24T11:04:51;29.00;99.90
7496;DHT22;3789;47.064;15.482;2023-07-24T11:07:22;28.90;99.90
7496;DHT22;3789;47.064;15.482;2023-07-24T11:09:56;28.80;99.90
7496;DHT22;3789;47.064;15.482;2023-07-24T11:12:23;28.70;99.90
7496;DHT22;3789;47.064;15.482;2023-07-24T11:15:05;28.60;99.90
7496;DHT22;3789;47.064;15.482;2023-07-24T11:17:34;28.40;99.90
7496;DHT22;3789;47.064;15.482;2023-07-24T11:20:13;28.30;99.90
7496;DHT22;3789;47.064;15.482;2023-07-24T11:22:50;28.20;99.90
7496;DHT22;3789;47.064;15.482;2023-07-24T11:25:29;28.20;99.90
7496;DHT22;3789;47.064;15.482;2023-07-24T11:28:09;28.00;99.90
7496;DHT22;3789;47.064;15.482;2023-07-24T11:30:38;28.00;99.90
7496;DHT22;3789;47.064;15.482;2023-07-24T11:33:19;28.20;99.90
7496;DHT22;3789;47.064;15.482;2023-07-24T11:35:48;28.50;99.90
7496;DHT22;3789;47.064;15.482;2023-07-24T11:38:20;28.60;99.90
7496;DHT22;3789;47.064;15.482;2023-07-24T11:40:55;28.70;99.90
7496;DHT22;3789;47.064;15.482;2023-07-24T11:43:26;28.90;99.90
7496;DHT22;3789;47.064;15.482;2023-07-24T11:45:55;28.90;99.90
7496;DHT22;3789;47.064;15.482;2023-07-24T11:48:26;28.80;99.90
7496;DHT22;3789;47.064;15.482;2023-07-24T11:50:57;28.70;99.90
7496;DHT22;3789;47.064;15.482;2023-07-24T11:53:31;28.90;99.90
7496;DHT22;3789;47.064;15.482;2023-07-24T11:56:15;29.00;99.90
7496;DHT22;3789;47.064;15.482;2023-07-24T11:58:43;29.00;99.90
7496;DHT22;3789;47.064;15.482;2023-07-24T12:01:14;29.00;99.90
7496;DHT22;3789;47.064;15.482;2023-07-24T12:03:46;29.00;99.90
7496;DHT22;3789;47.064;15.482;2023-07-24T12:06:20;29.10;99.90
7496;DHT22;3789;47.064;15.482;2023-07-24T12:08:50;29.20;99.90
7496;DHT22;3789;47.064;15.482;2023-07-24T12:11:28;29.30;99.90
7496;DHT22;3789;47.064;15.482;2023-07-24T12:13:58;29.40;99.90
7496;DHT22;3789;47.064;15.482;2023-07-24T12:16:28;29.70;99.90
7496;DHT22;3789;47.064;15.482;2023-07-24T12:18:57;30.00;99.90
7496;DHT22;3789;47.064;15.482;2023-07-24T12:21:26;30.10;99.90
7496;DHT22;3789;47.064;15.482;2023-07-24T12:24:06;30.10;99.90
7496;DHT22;3789;47.064;15.482;2023-07-24T12:26:35;29.90;99.90
7496;DHT22;3789;47.064;15.482;2023-07-24T12:29:13;30.00;99.90
7496;DHT22;3789;47.064;15.482;2023-07-24T12:31:45;29.80;99.90
7496;DHT22;3789;47.064;15.482;2023-07-24T12:34:23;29.80;99.90
7496;DHT22;3789;47.064;15.482;2023-07-24T12:36:55;29.70;99.90
7496;DHT22;3789;47.064;15.482;2023-07-24T12:39:23;29.50;99.90
7496;DHT22;3789;47.064;15.482;2023-07-24T12:42:00;29.40;99.90
7496;DHT22;3789;47.064;15.482;2023-07-24T12:44:34;29.30;99.90
7496;DHT22;3789;47.064;15.482;2023-07-24T12:47:05;29.10;99.90
7496;DHT22;3789;47.064;15.482;2023-07-24T12:49:37;29.10;99.90
7496;DHT22;3789;47.064;15.482;2023-07-24T12:52:06;29.00;99.90
7496;DHT22;3789;47.064;15.482;2023-07-24T12:54:38;29.00;99.90
7496;DHT22;3789;47.064;15.482;2023-07-24T12:57:27;28.90;99.90
7496;DHT22;3789;47.064;15.482;2023-07-24T12:59:57;28.80;99.90
7496;DHT22;3789;47.064;15.482;2023-07-24T13:02:28;28.60;99.90
7496;DHT22;3789;47.064;15.482;2023-07-24T13:04:59;28.60;99.90
7496;DHT22;3789;47.064;15.482;2023-07-24T13:07:28;28.60;99.90
7496;DHT22;3789;47.064;15.482;2023-07-24T13:10:10;28.70;99.90
7496;DHT22;3789;47.064;15.482;2023-07-24T13:12:49;28.60;99.90
7496;DHT22;3789;47.064;15.482;2023-07-24T13:15:28;28.60;99.90
7496;DHT22;3789;47.064;15.482;2023-07-24T13:17:56;28.50;99.90
7496;DHT22;3789;47.064;15.482;2023-07-24T13:20:34;28.50;99.90
7496;DHT22;3789;47.064;15.482;2023-07-24T13:23:03;28.60;99.90
7496;DHT22;3789;47.064;15.482;2023-07-24T13:25:34;28.70;99.90
7496;DHT22;3789;47.064;15.482;2023-07-24T13:28:06;28.90;99.90
7496;DHT22;3789;47.064;15.482;2023-07-24T13:30:36;29.00;99.90
7496;DHT22;3789;47.064;15.482;2023-07-24T13:33:05;29.10;99.90
7496;DHT22;3789;47.064;15.482;2023-07-24T13:35:35;29.20;99.90
7496;DHT22;3789;47.064;15.482;2023-07-24T13:38:07;29.30;99.90
7496;DHT22;3789;47.064;15.482;2023-07-24T13:40:37;29.30;99.90
7496;DHT22;3789;47.064;15.482;2023-07-24T13:43:08;29.40;99.90
7496;DHT22;3789;47.064;15.482;2023-07-24T13:45:38;29.40;99.90
7496;DHT22;3789;47.064;15.482;2023-07-24T13:48:10;29.40;99.90
7496;DHT22;3789;47.064;15.482;2023-07-24T13:50:39;29.30;99.90
7496;DHT22;3789;47.064;15.482;2023-07-24T13:53:23;29.30;99.90
7496;DHT22;3789;47.064;15.482;2023-07-24T13:56:01;29.10;99.90
7496;DHT22;3789;47.064;15.482;2023-07-24T13:58:30;29.00;99.90
7496;DHT22;3789;47.064;15.482;2023-07-24T14:00:58;29.00;99.90
7496;DHT22;3789;47.064;15.482;2023-07-24T14:03:27;29.10;99.90
7496;DHT22;3789;47.064;15.482;2023-07-24T14:05:59;29.10;99.90
7496;DHT22;3789;47.064;15.482;2023-07-24T14:08:34;29.00;99.90
7496;DHT22;3789;47.064;15.482;2023-07-24T14:11:05;29.00;99.90
7496;DHT22;3789;47.064;15.482;2023-07-24T14:13:33;29.00;99.90
7496;DHT22;3789;47.064;15.482;2023-07-24T14:16:11;29.00;99.90
7496;DHT22;3789;47.064;15.482;2023-07-24T14:19:09;28.70;99.90
7496;DHT22;3789;47.064;15.482;2023-07-24T14:21:38;28.50;99.90
7496;DHT22;3789;47.064;15.482;2023-07-24T14:24:10;28.50;99.90
7496;DHT22;3789;47.064;15.482;2023-07-24T14:26:40;28.50;99.90
7496;DHT22;3789;47.064;15.482;2023-07-24T14:29:13;28.60;99.90
7496;DHT22;3789;47.064;15.482;2023-07-24T14:31:41;28.60;99.90
7496;DHT22;3789;47.064;15.482;2023-07-24T14:34:19;28.50;99.90
7496;DHT22;3789;47.064;15.482;2023-07-24T14:36:47;28.30;99.90
7496;DHT22;3789;47.064;15.482;2023-07-24T14:39:26;28.00;99.90
7496;DHT22;3789;47.064;15.482;2023-07-24T14:41:55;27.90;99.90
7496;DHT22;3789;47.064;15.482;2023-07-24T14:44:25;27.80;99.90
7496;DHT22;3789;47.064;15.482;2023-07-24T14:46:56;27.70;99.90
7496;DHT22;3789;47.064;15.482;2023-07-24T14:49:26;27.70;99.90
7496;DHT22;3789;47.064;15.482;2023-07-24T14:52:04;27.80;99.90
7496;DHT22;3789;47.064;15.482;2023-07-24T14:54:32;27.90;99.90
7496;DHT22;3789;47.064;15.482;2023-07-24T14:57:13;27.90;99.90
7496;DHT22;3789;47.064;15.482;2023-07-24T14:59:52;27.90;99.90
7496;DHT22;3789;47.064;15.482;2023-07-24T15:02:23;28.00;99.90
7496;DHT22;3789;47.064;15.482;2023-07-24T15:04:52;28.00;99.90
7496;DHT22;3789;47.064;15.482;2023-07-24T15:07:21;28.10;99.90
7496;DHT22;3789;47.064;15.482;2023-07-24T15:09:55;28.00;99.90
7496;DHT22;3789;47.064;15.482;2023-07-24T15:12:26;28.10;99.90
7496;DHT22;3789;47.064;15.482;2023-07-24T15:15:00;28.10;99.90
7496;DHT22;3789;47.064;15.482;2023-07-24T15:17:34;28.00;99.90
7496;DHT22;3789;47.064;15.482;2023-07-24T15:20:09;27.90;99.90
7496;DHT22;3789;47.064;15.482;2023-07-24T15:22:41;27.90;99.90
7496;DHT22;3789;47.064;15.482;2023-07-24T15:25:12;27.90;99.90
7496;DHT22;3789;47.064;15.482;2023-07-24T15:27:41;27.90;99.90
7496;DHT22;3789;47.064;15.482;2023-07-24T15:30:11;27.80;99.90
7496;DHT22;3789;47.064;15.482;2023-07-24T15:32:49;27.70;99.90
7496;DHT22;3789;47.064;15.482;2023-07-24T15:35:18;27.70;99.90
7496;DHT22;3789;47.064;15.482;2023-07-24T15:37:55;27.70;99.90
7496;DHT22;3789;47.064;15.482;2023-07-24T15:40:24;27.50;99.90
7496;DHT22;3789;47.064;15.482;2023-07-24T15:42:53;27.40;98.50
7496;DHT22;3789;47.064;15.482;2023-07-24T15:45:21;27.60;98.00
7496;DHT22;3789;47.064;15.482;2023-07-24T15:47:51;27.60;97.00
7496;DHT22;3789;47.064;15.482;2023-07-24T15:50:21;27.60;96.70
7496;DHT22;3789;47.064;15.482;2023-07-24T15:52:53;27.70;96.30
7496;DHT22;3789;47.064;15.482;2023-07-24T15:55:30;27.60;96.60
7496;DHT22;3789;47.064;15.482;2023-07-24T15:58:08;27.60;96.80
7496;DHT22;3789;47.064;15.482;2023-07-24T16:00:41;27.60;96.20
7496;DHT22;3789;47.064;15.482;2023-07-24T16:03:10;27.70;96.00
7496;DHT22;3789;47.064;15.482;2023-07-24T16:05:39;27.70;96.40
7496;DHT22;3789;47.064;15.482;2023-07-24T16:08:16;27.70;96.30
7496;DHT22;3789;47.064;15.482;2023-07-24T16:11:01;27.70;96.40
7496;DHT22;3789;47.064;15.482;2023-07-24T16:13:30;27.60;96.20
7496;DHT22;3789;47.064;15.482;2023-07-24T16:16:00;27.60;95.50
7496;DHT22;3789;47.064;15.482;2023-07-24T16:18:30;27.60;95.60
7496;DHT22;3789;47.064;15.482;2023-07-24T16:21:01;27.70;96.00
7496;DHT22;3789;47.064;15.482;2023-07-24T16:23:36;27.70;95.90
7496;DHT22;3789;47.064;15.482;2023-07-24T16:26:05;27.70;95.40